Great Dunmow, United Kingdom
Current Conditions -  °F | °C
As of 4:50 PM on Tuesday 27 Jan 2015 (Local Time) from EGSS Reporting Station
Broken Clouds Broken Clouds  
Wind Chill:   Ceiling: 2300
Heat Index:   Visibility: 6mi
Dew Point:   Wind: 5mph
Humidity: 81%   Direction: 250°WSW
Pressure: 30.24"   Gusts: NA
Location:  51.87°N, 0.36°E
Report Text: EGSS 271650Z 25004KT 9999 BKN023 07/04 Q1024
Loading
Personal Weather Stations






























Interactive Weather Map New forecast layout! Learn more

10-Day Weather Forecast

Advertisements
Track Severe Weather on mobile